Time;durP1;ratioP1;P1;durP2;ratioP2;P2;SDS_P1;SDS_P2;PMS_P1;PMS_P2;Temp;Humidity;BMP_temperature;BMP_pressure;BME280_temperature;BME280_humidity;BME280_pressure;Samples;Min_cycle;Max_cycle;Signal;HPM_P1;HPM_P2
2023/06/08 00:00:12;;;;;;;1999.90;999.90;;;13.90;99.90;;;;;;5031622;28;20046;-74
2023/06/08 00:02:39;;;;;;;1918.10;820.15;;;13.90;99.90;;;;;;5031118;28;20049;-73
2023/06/08 00:05:07;;;;;;;1999.90;433.38;;;13.80;99.90;;;;;;5031117;28;20124;-74
2023/06/08 00:07:34;;;;;;;1890.60;800.78;;;13.80;99.90;;;;;;4998457;28;20088;-75
2023/06/08 00:10:00;;;;;;;1999.90;999.90;;;13.90;99.90;;;;;;5031671;28;20057;-74
2023/06/08 00:12:27;;;;;;;1543.60;201.70;;;13.90;99.90;;;;;;5013964;28;20406;-74
2023/06/08 00:14:53;;;;;;;1703.70;619.22;;;13.90;99.90;;;;;;5030885;28;20107;-74
2023/06/08 00:17:18;;;;;;;1999.90;999.90;;;13.90;99.90;;;;;;5033002;28;20398;-74
2023/06/08 00:19:44;;;;;;;1999.90;999.90;;;13.90;99.90;;;;;;5026278;28;21123;-74
2023/06/08 00:22:12;;;;;;;1999.90;999.90;;;13.90;99.90;;;;;;5029159;28;20092;-74
2023/06/08 00:24:38;;;;;;;1999.90;999.90;;;14.00;99.90;;;;;;5031932;28;20081;-73
2023/06/08 00:27:05;;;;;;;1859.55;200.75;;;13.90;99.90;;;;;;5030643;28;20084;-74
2023/06/08 00:29:32;;;;;;;1982.15;643.05;;;13.90;99.90;;;;;;5032436;28;20053;-74
2023/06/08 00:31:57;;;;;;;1548.70;575.45;;;14.00;99.90;;;;;;5015131;28;20046;-73
2023/06/08 00:34:25;;;;;;;1999.90;999.90;;;14.00;99.90;;;;;;5031403;28;20049;-75
2023/06/08 00:36:51;;;;;;;1999.90;533.50;;;14.00;99.90;;;;;;5010861;28;20052;-76
2023/06/08 00:39:16;;;;;;;1849.90;794.85;;;13.90;99.90;;;;;;5031327;28;20128;-74
2023/06/08 00:41:42;;;;;;;1107.88;122.22;;;13.90;99.90;;;;;;5011679;28;20053;-74
2023/06/08 00:44:09;;;;;;;1818.30;441.73;;;13.90;99.90;;;;;;5030646;28;20474;-74
2023/06/08 00:46:36;;;;;;;1999.90;999.90;;;13.90;99.90;;;;;;5014807;28;20132;-74
2023/06/08 00:49:02;;;;;;;1630.97;596.15;;;13.90;99.90;;;;;;5031706;28;20041;-76
2023/06/08 00:51:34;;;;;;;1999.90;999.90;;;13.90;99.90;;;;;;5014115;28;20390;-81
2023/06/08 00:54:04;;;;;;;1910.85;445.55;;;13.80;99.90;;;;;;5005285;28;20136;-74
2023/06/08 00:56:31;;;;;;;1999.90;999.90;;;13.80;99.90;;;;;;5026308;28;20593;-74
2023/06/08 00:59:02;;;;;;;1999.90;999.90;;;13.80;99.90;;;;;;5013899;28;20053;-75
2023/06/08 01:01:29;;;;;;;1851.18;583.65;;;13.80;99.90;;;;;;5030947;28;20074;-75
2023/06/08 01:04:07;;;;;;;1460.53;361.67;;;13.80;99.90;;;;;;5011855;28;20099;-75
2023/06/08 01:06:48;;;;;;;1984.15;276.83;;;13.80;99.90;;;;;;5030627;28;20501;-75
2023/06/08 01:09:29;;;;;;;1999.90;312.83;;;13.80;99.90;;;;;;5026775;28;20045;-80
2023/06/08 01:12:29;;;;;;;1827.72;285.00;;;13.80;99.90;;;;;;5007132;28;20041;-79
2023/06/08 01:15:00;;;;;;;;;;;13.70;99.90;;;;;;5024357;28;20046;-75
2023/06/08 01:17:32;;;;;;;1999.90;488.90;;;13.70;99.90;;;;;;5014347;28;19921;-75
2023/06/08 01:20:15;;;;;;;1962.35;329.20;;;13.60;99.90;;;;;;5027603;28;20087;-78
2023/06/08 01:23:03;;;;;;;1999.90;999.90;;;13.70;99.90;;;;;;5027890;28;20456;-74
2023/06/08 01:25:31;;;;;;;1999.90;691.45;;;13.60;99.90;;;;;;5025292;28;20038;-75
2023/06/08 01:28:12;;;;;;;1999.90;999.90;;;13.60;99.90;;;;;;5030643;28;20520;-76
2023/06/08 01:30:43;;;;;;;1999.90;462.92;;;13.60;99.90;;;;;;5026494;28;20405;-74
2023/06/08 01:33:14;;;;;;;1750.47;593.53;;;13.60;99.90;;;;;;5027459;28;20049;-74
2023/06/08 01:35:40;;;;;;;1999.90;999.90;;;13.60;99.90;;;;;;5030221;28;20057;-74
2023/06/08 01:38:20;;;;;;;1999.90;999.90;;;13.60;99.90;;;;;;5029349;28;20099;-74
2023/06/08 01:40:54;;;;;;;1834.13;453.38;;;13.50;99.90;;;;;;5009832;28;20054;-74
2023/06/08 01:43:22;;;;;;;1999.90;999.90;;;13.50;99.90;;;;;;5011151;28;20065;-74
2023/06/08 01:45:51;;;;;;;1999.90;999.90;;;13.50;99.90;;;;;;5029261;28;20063;-74
2023/06/08 01:48:19;;;;;;;1999.90;999.90;;;13.50;99.90;;;;;;5009777;28;20049;-77
2023/06/08 01:50:46;;;;;;;1999.90;999.90;;;13.40;99.90;;;;;;5027983;28;20508;-74
2023/06/08 01:53:12;;;;;;;1999.90;999.90;;;13.50;99.90;;;;;;5021068;28;20453;-78
2023/06/08 01:55:38;;;;;;;1963.07;263.58;;;13.50;99.90;;;;;;5009535;28;20313;-75
2023/06/08 01:58:03;;;;;;;1567.80;351.42;;;13.50;99.90;;;;;;5007272;28;20037;-75
2023/06/08 02:00:29;;;;;;;1999.90;999.90;;;13.40;99.90;;;;;;5009471;28;20049;-78
2023/06/08 02:02:55;;;;;;;1744.88;403.17;;;13.40;99.90;;;;;;5007222;28;20053;-75
2023/06/08 02:05:20;;;;;;;1743.78;386.67;;;13.50;99.90;;;;;;5005703;28;20045;-79
2023/06/08 02:07:46;;;;;;;1858.80;805.50;;;13.50;99.90;;;;;;5023300;28;20102;-75
2023/06/08 02:10:12;;;;;;;1892.80;787.97;;;13.50;99.90;;;;;;5024063;28;20128;-76
2023/06/08 02:12:39;;;;;;;1975.07;237.93;;;13.50;99.90;;;;;;4991925;28;20084;-75
2023/06/08 02:15:05;;;;;;;1999.90;999.90;;;13.60;99.90;;;;;;5022299;28;20052;-75
2023/06/08 02:17:33;;;;;;;1999.90;999.90;;;13.60;99.90;;;;;;5023784;28;20058;-77
2023/06/08 02:20:06;;;;;;;1581.95;182.02;;;13.60;99.90;;;;;;5024143;28;20049;-74
2023/06/08 02:22:36;;;;;;;1999.90;999.90;;;13.60;99.90;;;;;;5009029;28;20167;-75
2023/06/08 02:25:02;;;;;;;1999.90;443.05;;;13.60;99.90;;;;;;5024103;28;20041;-75
2023/06/08 02:27:28;;;;;;;1805.07;584.85;;;13.70;99.90;;;;;;5023824;28;20041;-75
2023/06/08 02:29:55;;;;;;;1999.90;999.90;;;13.70;99.90;;;;;;5024207;28;20541;-75
2023/06/08 02:32:21;;;;;;;1937.32;310.15;;;13.60;99.90;;;;;;5004457;28;20058;-75
2023/06/08 02:34:53;;;;;;;1999.90;999.90;;;13.70;99.90;;;;;;5023806;28;20045;-76
2023/06/08 02:37:19;;;;;;;1999.90;308.23;;;13.70;99.90;;;;;;5025822;28;20042;-75
2023/06/08 02:39:45;;;;;;;1999.90;999.90;;;13.70;99.90;;;;;;5012452;28;20054;-78
2023/06/08 02:42:11;;;;;;;1999.90;842.05;;;13.70;99.90;;;;;;5030427;28;20041;-75
2023/06/08 02:44:37;;;;;;;1999.90;468.35;;;13.70;99.90;;;;;;5029434;28;20084;-75
2023/06/08 02:47:03;;;;;;;1906.78;630.17;;;13.60;99.90;;;;;;5027431;28;20088;-75
2023/06/08 02:49:29;;;;;;;1999.90;999.90;;;13.70;99.90;;;;;;5029688;28;20033;-75
2023/06/08 02:51:55;;;;;;;1649.68;564.40;;;13.70;99.90;;;;;;5007824;28;20107;-76
2023/06/08 02:54:20;;;;;;;1815.82;181.75;;;13.70;99.90;;;;;;5016900;28;20052;-74
2023/06/08 02:56:46;;;;;;;1999.90;999.90;;;13.70;99.90;;;;;;5026395;28;20121;-75
2023/06/08 02:59:12;;;;;;;1880.22;806.67;;;13.80;99.90;;;;;;5015507;28;20049;-74
2023/06/08 03:01:53;;;;;;;1851.53;792.55;;;13.80;99.90;;;;;;4989480;28;20056;-74
2023/06/08 03:04:25;;;;;;;1857.53;223.57;;;13.70;99.90;;;;;;5011386;28;20050;-75
2023/06/08 03:06:54;;;;;;;1741.90;600.33;;;13.80;99.90;;;;;;5007901;28;20057;-74
2023/06/08 03:09:24;;;;;;;1999.90;300.17;;;13.80;99.90;;;;;;5006124;28;20049;-75
2023/06/08 03:11:51;;;;;;;1999.90;999.90;;;13.80;99.90;;;;;;5009516;28;20157;-74
2023/06/08 03:14:18;;;;;;;1902.90;639.72;;;13.80;99.90;;;;;;5009749;28;20038;-75
2023/06/08 03:16:45;;;;;;;1534.40;275.30;;;13.80;99.90;;;;;;5006411;28;20405;-80
2023/06/08 03:19:12;;;;;;;1668.78;591.13;;;13.70;99.90;;;;;;5008787;28;20528;-75
2023/06/08 03:21:38;;;;;;;1999.90;295.40;;;13.70;99.90;;;;;;5011020;28;20050;-74
2023/06/08 03:24:05;;;;;;;1999.90;362.75;;;13.60;99.90;;;;;;5006162;28;20421;-74
2023/06/08 03:26:30;;;;;;;1905.43;297.02;;;13.60;99.90;;;;;;5008730;28;20065;-75
2023/06/08 03:28:56;;;;;;;1999.90;395.95;;;13.60;99.90;;;;;;5009922;28;20498;-77
2023/06/08 03:31:22;;;;;;;1965.43;343.15;;;13.70;99.90;;;;;;5012113;28;20061;-79
2023/06/08 03:33:48;;;;;;;1999.90;341.65;;;13.60;99.90;;;;;;5010487;28;20053;-75
2023/06/08 03:36:15;;;;;;;1999.90;999.90;;;13.60;99.90;;;;;;5011134;28;20042;-77
2023/06/08 03:38:41;;;;;;;1999.90;312.13;;;13.60;99.90;;;;;;4998084;28;20434;-74
2023/06/08 03:41:08;;;;;;;1999.90;999.90;;;13.70;99.90;;;;;;5009877;28;20046;-79
2023/06/08 03:43:35;;;;;;;1804.82;243.07;;;13.70;99.90;;;;;;5012630;28;20081;-74
2023/06/08 03:46:01;;;;;;;1999.90;999.90;;;13.70;99.90;;;;;;5006686;28;20045;-74
2023/06/08 03:48:27;;;;;;;1715.47;220.68;;;13.60;99.90;;;;;;5010649;28;20045;-74
2023/06/08 03:50:52;;;;;;;1998.03;207.10;;;13.60;99.90;;;;;;5009839;28;20042;-75
2023/06/08 03:53:18;;;;;;;1508.88;275.08;;;13.60;99.90;;;;;;5012128;28;20052;-75
2023/06/08 03:55:44;;;;;;;1999.90;999.90;;;13.60;99.90;;;;;;5011260;28;20037;-75
2023/06/08 03:58:12;;;;;;;1999.90;999.90;;;13.60;99.90;;;;;;5008627;28;20046;-75
2023/06/08 04:00:38;;;;;;;1955.10;822.97;;;13.60;99.90;;;;;;5012497;28;20056;-76
2023/06/08 04:03:05;;;;;;;1767.00;195.48;;;13.60;99.90;;;;;;4991907;28;20053;-76
2023/06/08 04:05:32;;;;;;;1712.70;232.23;;;13.60;99.90;;;;;;5001478;28;20057;-75
2023/06/08 04:08:01;;;;;;;1999.90;269.45;;;13.60;99.90;;;;;;5001499;28;20050;-75
2023/06/08 04:10:26;;;;;;;1999.90;999.90;;;13.70;99.90;;;;;;5008696;28;20048;-75
2023/06/08 04:12:52;;;;;;;1999.90;999.90;;;13.70;99.90;;;;;;5009350;28;20045;-81
2023/06/08 04:15:18;;;;;;;1839.97;793.17;;;13.70;99.90;;;;;;5010589;28;20450;-74
2023/06/08 04:17:46;;;;;;;1694.45;429.23;;;13.70;99.90;;;;;;5013314;28;20121;-75
2023/06/08 04:20:12;;;;;;;1952.78;288.40;;;13.80;99.90;;;;;;5010630;28;20510;-76
2023/06/08 04:22:38;;;;;;;1999.90;328.23;;;13.70;99.90;;;;;;5009967;28;20129;-76
2023/06/08 04:25:05;;;;;;;1999.90;663.40;;;13.80;99.90;;;;;;5013142;28;20129;-77
2023/06/08 04:27:31;;;;;;;1943.70;610.33;;;13.80;99.90;;;;;;5010537;28;20064;-76
2023/06/08 04:29:57;;;;;;;1999.90;999.90;;;13.70;99.90;;;;;;5012943;28;20046;-76
2023/06/08 04:32:23;;;;;;;1999.90;999.90;;;13.80;99.90;;;;;;4992625;28;20084;-75
2023/06/08 04:34:49;;;;;;;1999.90;999.90;;;13.80;99.90;;;;;;5008365;28;20049;-75
2023/06/08 04:37:15;;;;;;;1999.90;999.90;;;13.80;99.90;;;;;;5005442;28;20073;-74
2023/06/08 04:39:41;;;;;;;1999.90;999.90;;;13.80;99.90;;;;;;5008598;28;20927;-74
2023/06/08 04:42:08;;;;;;;1999.90;327.20;;;13.80;99.90;;;;;;5005777;28;20081;-75
2023/06/08 04:44:34;;;;;;;1716.55;235.77;;;13.80;99.90;;;;;;5012281;28;20046;-75
2023/06/08 04:47:01;;;;;;;1999.90;311.20;;;13.80;99.90;;;;;;5008576;28;20550;-75
2023/06/08 04:49:36;;;;;;;1793.45;247.23;;;13.90;99.90;;;;;;5006446;28;20410;-78
2023/06/08 04:52:02;;;;;;;1680.72;225.82;;;13.90;99.90;;;;;;5005818;28;20042;-75
2023/06/08 04:54:28;;;;;;;1897.25;595.22;;;13.90;99.90;;;;;;5011141;28;20536;-78
2023/06/08 04:56:58;;;;;;;1816.75;621.85;;;14.00;99.90;;;;;;5006277;28;20054;-75
2023/06/08 04:59:25;;;;;;;1999.90;999.90;;;14.00;99.90;;;;;;5010376;28;20042;-75
2023/06/08 05:01:51;;;;;;;1999.90;335.52;;;14.00;99.90;;;;;;4993335;28;20120;-77
2023/06/08 05:04:17;;;;;;;1899.03;803.80;;;14.10;99.90;;;;;;5025965;28;20120;-75
2023/06/08 05:06:42;;;;;;;1620.90;243.55;;;14.10;99.90;;;;;;5026511;28;20152;-75
2023/06/08 05:09:08;;;;;;;1723.55;601.10;;;14.10;99.90;;;;;;5026091;28;20041;-77
2023/06/08 05:11:34;;;;;;;1999.90;848.63;;;14.20;99.90;;;;;;5017620;28;20511;-76
2023/06/08 05:14:00;;;;;;;1730.25;211.23;;;14.10;99.90;;;;;;5023431;28;20041;-79
2023/06/08 05:16:25;;;;;;;1621.00;172.77;;;14.20;99.90;;;;;;5023125;28;20482;-76
2023/06/08 05:18:51;;;;;;;1999.90;999.90;;;14.20;99.90;;;;;;4991969;28;20041;-77
2023/06/08 05:21:17;;;;;;;1896.80;804.63;;;14.20;99.90;;;;;;5022288;28;20037;-75
2023/06/08 05:23:42;;;;;;;1999.90;402.02;;;14.20;99.90;;;;;;5022563;28;20048;-76
2023/06/08 05:26:08;;;;;;;1918.45;286.10;;;14.30;99.90;;;;;;5003679;28;20061;-75
2023/06/08 05:28:34;;;;;;;1703.93;577.72;;;14.30;99.90;;;;;;5024107;28;20541;-80
2023/06/08 05:31:00;;;;;;;1918.13;799.28;;;14.40;99.90;;;;;;5019668;28;20143;-77
2023/06/08 05:33:26;;;;;;;1427.22;136.00;;;14.40;99.90;;;;;;5017524;28;20057;-75
2023/06/08 05:35:52;;;;;;;1563.32;223.32;;;14.50;99.90;;;;;;5007695;28;20147;-78
2023/06/08 05:38:19;;;;;;;1999.90;342.80;;;14.60;99.90;;;;;;4990910;28;20069;-75
2023/06/08 05:40:45;;;;;;;1999.90;669.28;;;14.60;99.90;;;;;;5026930;28;20067;-75
2023/06/08 05:43:11;;;;;;;1679.75;228.15;;;14.60;99.90;;;;;;5027159;28;20498;-75
2023/06/08 05:45:36;;;;;;;1999.90;999.90;;;14.60;99.90;;;;;;5010693;28;20395;-75
2023/06/08 05:48:02;;;;;;;1709.85;578.97;;;14.60;99.90;;;;;;5027883;28;20076;-79
2023/06/08 05:50:28;;;;;;;1725.70;773.10;;;14.60;99.90;;;;;;5040183;28;20120;-75
2023/06/08 05:52:54;;;;;;;1778.30;781.17;;;14.70;99.90;;;;;;5011124;28;20059;-74
2023/06/08 05:55:20;;;;;;;1767.63;786.88;;;14.60;99.90;;;;;;5024938;28;20034;-77
2023/06/08 05:57:45;;;;;;;1999.90;999.90;;;14.60;99.90;;;;;;5026140;28;20053;-81
2023/06/08 06:00:12;;;;;;;1744.55;781.58;;;14.60;99.90;;;;;;4989126;28;20064;-78
2023/06/08 06:02:38;;;;;;;1615.45;204.20;;;14.60;99.90;;;;;;5024972;28;20580;-77
2023/06/08 06:05:06;;;;;;;1844.10;792.25;;;14.60;99.90;;;;;;5003542;28;20052;-77
2023/06/08 06:07:31;;;;;;;1999.90;999.90;;;14.50;99.90;;;;;;5007630;28;20444;-76
2023/06/08 06:09:57;;;;;;;1922.05;800.42;;;14.50;99.90;;;;;;5007449;28;20049;-81
2023/06/08 06:12:23;;;;;;;1999.90;999.90;;;14.50;99.90;;;;;;4992358;28;20546;-76
2023/06/08 06:14:52;;;;;;;1824.38;795.42;;;14.50;99.90;;;;;;5010672;28;20510;-76
2023/06/08 06:17:18;;;;;;;1786.13;785.58;;;14.50;99.90;;;;;;5008679;28;20042;-76
2023/06/08 06:19:43;;;;;;;1999.90;999.90;;;14.50;99.90;;;;;;5010930;28;21462;-76
2023/06/08 06:22:10;;;;;;;1702.60;774.40;;;14.60;99.90;;;;;;5027852;28;20057;-77
2023/06/08 06:24:36;;;;;;;1818.93;795.40;;;14.60;99.90;;;;;;5012211;28;21359;-77
2023/06/08 06:27:03;;;;;;;1999.90;999.90;;;14.70;99.90;;;;;;5025974;28;20037;-76
2023/06/08 06:29:29;;;;;;;1999.90;999.90;;;14.70;99.90;;;;;;5024837;28;20088;-79
2023/06/08 06:31:55;;;;;;;1730.13;786.67;;;14.70;99.90;;;;;;5031268;28;20056;-76
2023/06/08 06:34:21;;;;;;;1753.32;778.90;;;14.70;99.90;;;;;;5031514;28;20041;-76
2023/06/08 06:36:47;;;;;;;1857.60;791.47;;;14.80;99.90;;;;;;5026611;28;20486;-76
2023/06/08 06:39:13;;;;;;;1999.90;999.90;;;14.80;99.90;;;;;;5028972;28;20049;-76
2023/06/08 06:41:42;;;;;;;1749.40;782.38;;;14.90;99.90;;;;;;5030314;28;20460;-77
2023/06/08 06:44:08;;;;;;;1691.05;769.25;;;14.90;99.90;;;;;;5029047;28;20576;-84
2023/06/08 06:46:33;;;;;;;1999.90;999.90;;;15.00;99.90;;;;;;5024919;28;20091;-76
2023/06/08 06:48:59;;;;;;;1999.90;999.90;;;15.10;99.90;;;;;;5030451;28;20042;-77
2023/06/08 06:51:25;;;;;;;1999.90;999.90;;;15.10;99.90;;;;;;5027397;28;20547;-77
2023/06/08 06:53:51;;;;;;;1999.90;999.90;;;15.10;99.90;;;;;;5014869;28;20056;-76
2023/06/08 06:56:17;;;;;;;1999.90;999.90;;;15.20;99.90;;;;;;5029426;28;20120;-76
2023/06/08 06:58:44;;;;;;;1999.90;999.90;;;15.30;99.90;;;;;;5033376;28;20141;-77
2023/06/08 07:01:16;;;;;;;1999.90;999.90;;;15.30;99.90;;;;;;5017309;28;20049;-79
2023/06/08 07:03:46;;;;;;;1999.90;999.90;;;15.40;99.90;;;;;;4985226;28;20088;-76
2023/06/08 07:06:15;;;;;;;1999.90;999.90;;;15.50;99.90;;;;;;5035822;28;20049;-77
2023/06/08 07:08:41;;;;;;;1999.90;999.90;;;15.60;99.90;;;;;;5035364;28;20053;-76
2023/06/08 07:11:07;;;;;;;1743.72;779.90;;;15.70;99.90;;;;;;5018018;28;20442;-77
2023/06/08 07:13:33;;;;;;;1999.90;999.90;;;15.90;99.90;;;;;;5038665;28;20038;-77
2023/06/08 07:15:59;;;;;;;1999.90;942.03;;;16.10;99.90;;;;;;5028928;28;20045;-77
2023/06/08 07:18:24;;;;;;;1999.90;999.90;;;16.30;99.90;;;;;;5003290;28;20051;-77
2023/06/08 07:20:51;;;;;;;1999.90;915.53;;;16.50;99.90;;;;;;5005833;28;20087;-76
2023/06/08 07:23:17;;;;;;;1999.90;596.20;;;16.70;99.90;;;;;;5010045;28;20037;-77
2023/06/08 07:25:42;;;;;;;1999.90;858.53;;;16.90;99.90;;;;;;5025845;28;20111;-81
2023/06/08 07:28:09;;;;;;;1999.90;697.10;;;17.10;99.90;;;;;;5010439;28;20116;-76
2023/06/08 07:30:35;;;;;;;1999.90;792.53;;;17.20;99.90;;;;;;5029965;28;20037;-76
2023/06/08 07:33:02;;;;;;;1999.90;840.95;;;17.40;99.90;;;;;;5009959;28;20056;-76
2023/06/08 07:35:28;;;;;;;1999.90;999.90;;;17.60;99.90;;;;;;5032151;28;20099;-76
2023/06/08 07:37:54;;;;;;;1999.90;828.70;;;17.70;99.90;;;;;;5032542;28;20045;-80
2023/06/08 07:40:20;;;;;;;1999.90;999.90;;;17.90;99.90;;;;;;4996206;28;20120;-78
2023/06/08 07:42:46;;;;;;;1999.90;999.90;;;18.00;99.90;;;;;;5018152;28;20095;-76
2023/06/08 07:45:13;;;;;;;1999.90;999.90;;;18.00;99.90;;;;;;5032510;28;20045;-76
2023/06/08 07:47:40;;;;;;;1999.90;671.47;;;18.10;99.90;;;;;;5015102;28;20394;-77
2023/06/08 07:50:10;;;;;;;1999.90;999.90;;;18.30;99.90;;;;;;5030106;28;20045;-76
2023/06/08 07:52:36;;;;;;;1999.90;688.05;;;18.40;99.90;;;;;;5031391;28;20094;-76
2023/06/08 07:55:02;;;;;;;1999.90;999.90;;;18.60;99.90;;;;;;5016488;28;20054;-77
2023/06/08 07:57:31;;;;;;;1999.90;869.67;;;18.60;99.90;;;;;;5031659;28;20559;-76
2023/06/08 07:59:56;;;;;;;1999.90;999.90;;;18.80;99.90;;;;;;5033886;28;20084;-76
2023/06/08 08:02:22;;;;;;;1999.90;999.90;;;18.90;99.90;;;;;;5031751;28;20447;-77
2023/06/08 08:04:48;;;;;;;1999.90;863.53;;;19.00;99.90;;;;;;5031916;28;20049;-77
2023/06/08 08:07:14;;;;;;;1999.90;999.90;;;19.10;99.90;;;;;;5016191;28;20041;-76
2023/06/08 08:09:42;;;;;;;1999.90;999.90;;;19.20;99.90;;;;;;5033477;28;20487;-77
2023/06/08 08:12:11;;;;;;;1999.90;999.90;;;19.40;99.90;;;;;;5014560;28;20049;-77
2023/06/08 08:14:37;;;;;;;1999.90;999.90;;;19.50;99.90;;;;;;5030742;28;20049;-77
2023/06/08 08:17:04;;;;;;;1999.90;999.90;;;19.60;99.90;;;;;;5030684;28;20068;-77
2023/06/08 08:19:30;;;;;;;1999.90;835.83;;;19.70;99.90;;;;;;4999468;28;20100;-76
2023/06/08 08:21:55;;;;;;;1999.90;999.90;;;19.90;99.90;;;;;;5033540;28;20522;-77
2023/06/08 08:24:21;;;;;;;1999.90;999.90;;;20.10;99.90;;;;;;5032055;28;20075;-77
2023/06/08 08:26:47;;;;;;;1999.90;999.90;;;20.20;99.90;;;;;;5013237;28;20068;-76
2023/06/08 08:29:12;;;;;;;1999.90;999.90;;;20.50;99.90;;;;;;5015905;28;20046;-77
2023/06/08 08:31:38;;;;;;;1999.90;999.90;;;20.50;99.90;;;;;;5033005;28;20046;-77
2023/06/08 08:34:04;;;;;;;1999.90;999.90;;;20.60;99.90;;;;;;5014994;28;20452;-77
2023/06/08 08:36:30;;;;;;;1999.90;999.90;;;20.70;99.90;;;;;;5030082;28;20045;-77
2023/06/08 08:38:56;;;;;;;1999.90;999.90;;;20.80;99.90;;;;;;4999059;28;20057;-77
2023/06/08 08:41:28;;;;;;;1999.90;999.90;;;21.00;99.90;;;;;;4997405;28;20041;-77
2023/06/08 08:44:04;;;;;;;1999.90;999.90;;;21.00;99.90;;;;;;5033131;28;20071;-77
2023/06/08 08:46:37;;;;;;;1999.90;999.90;;;21.10;99.90;;;;;;5030050;28;20045;-76
2023/06/08 08:49:14;;;;;;;1999.90;999.90;;;21.30;99.90;;;;;;5014961;28;20370;-77
2023/06/08 08:51:40;;;;;;;1999.90;999.90;;;21.50;99.90;;;;;;5032479;28;20095;-76
2023/06/08 08:54:09;;;;;;;1999.90;999.90;;;21.60;99.90;;;;;;5032922;28;20045;-77
2023/06/08 08:56:36;;;;;;;1999.90;999.90;;;21.70;99.90;;;;;;5029550;28;20155;-76
2023/06/08 08:59:04;;;;;;;1999.90;999.90;;;21.80;99.90;;;;;;5014218;28;20045;-76
2023/06/08 09:01:32;;;;;;;1999.90;999.90;;;21.90;99.90;;;;;;5014309;28;20053;-76
2023/06/08 09:03:59;;;;;;;1999.90;999.90;;;22.10;99.90;;;;;;5014947;28;20521;-77
2023/06/08 09:06:25;;;;;;;1999.90;999.90;;;22.30;99.90;;;;;;5030547;28;20045;-76
2023/06/08 09:08:51;;;;;;;1999.90;999.90;;;22.40;99.90;;;;;;5031192;28;20410;-77
2023/06/08 09:11:16;;;;;;;1999.90;999.90;;;22.50;99.90;;;;;;5030798;28;20049;-79
2023/06/08 09:13:43;;;;;;;1999.90;999.90;;;22.60;99.90;;;;;;5031099;28;20573;-77
2023/06/08 09:16:10;;;;;;;1999.90;999.90;;;22.80;99.90;;;;;;5032381;28;20037;-77
2023/06/08 09:18:36;;;;;;;1999.90;999.90;;;23.00;99.90;;;;;;5030580;28;20413;-80
2023/06/08 09:21:21;;;;;;;1999.90;960.72;;;23.10;99.90;;;;;;5032179;28;20045;-77
2023/06/08 09:24:11;;;;;;;1999.90;794.15;;;23.10;99.90;;;;;;5031703;28;20083;-78
2023/06/08 09:26:58;;;;;;;1999.90;999.90;;;23.40;99.90;;;;;;5031150;28;20045;-76
2023/06/08 09:29:40;;;;;;;1999.90;999.90;;;23.50;99.90;;;;;;5030704;28;20041;-77
2023/06/08 09:32:12;;;;;;;1999.90;999.90;;;23.50;99.90;;;;;;5030518;28;20049;-77
2023/06/08 09:35:04;;;;;;;1999.90;999.90;;;23.50;99.90;;;;;;5013390;28;20100;-77
2023/06/08 09:37:32;;;;;;;1999.90;999.90;;;23.80;99.90;;;;;;5014120;28;20049;-77
2023/06/08 09:40:07;;;;;;;1999.90;999.90;;;23.90;99.90;;;;;;5031200;28;20045;-75
2023/06/08 09:42:53;;;;;;;1999.90;999.90;;;23.90;99.90;;;;;;5029555;28;20045;-75
2023/06/08 09:45:20;;;;;;;1999.90;999.90;;;24.10;99.90;;;;;;5014599;28;20053;-76
2023/06/08 09:47:47;;;;;;;1999.90;999.90;;;24.20;99.90;;;;;;5036058;28;20049;-75
2023/06/08 09:50:13;;;;;;;1999.90;999.90;;;24.30;99.90;;;;;;5035232;28;20440;-75
2023/06/08 09:52:40;;;;;;;1999.90;999.90;;;24.60;99.90;;;;;;5034930;28;20060;-76
2023/06/08 09:55:06;;;;;;;1999.90;999.90;;;24.80;99.90;;;;;;5033081;28;20076;-75
2023/06/08 09:57:35;;;;;;;1999.90;999.90;;;24.90;99.90;;;;;;5015761;28;20053;-75
2023/06/08 10:00:09;;;;;;;1999.90;999.90;;;25.10;99.90;;;;;;5036108;28;20057;-75
2023/06/08 10:03:01;;;;;;;1999.90;999.90;;;25.30;99.90;;;;;;5015257;28;20120;-82
2023/06/08 10:05:33;;;;;;;1999.90;999.90;;;25.70;99.90;;;;;;5014435;28;20049;-76
2023/06/08 10:08:01;;;;;;;1999.90;999.90;;;25.80;99.90;;;;;;5034140;28;20088;-76
2023/06/08 10:10:34;;;;;;;1999.90;999.90;;;25.90;99.90;;;;;;5000003;28;20552;-76
2023/06/08 10:13:00;;;;;;;1999.90;999.90;;;26.10;99.90;;;;;;5035443;28;20053;-75
2023/06/08 10:15:27;;;;;;;1999.90;999.90;;;26.30;99.90;;;;;;5033088;28;20069;-76
2023/06/08 10:17:54;;;;;;;1999.90;999.90;;;26.50;99.90;;;;;;5033931;28;20049;-76
2023/06/08 10:20:20;;;;;;;1999.90;999.90;;;26.70;99.90;;;;;;5026540;28;20072;-76
2023/06/08 10:22:47;;;;;;;1999.90;999.90;;;27.10;99.90;;;;;;5016347;28;20084;-76
2023/06/08 10:25:16;;;;;;;1999.90;999.90;;;27.40;99.90;;;;;;5017960;28;20128;-78
2023/06/08 10:27:52;;;;;;;1999.90;999.90;;;27.80;99.90;;;;;;5033892;28;20460;-77
2023/06/08 10:30:29;;;;;;;1999.90;999.90;;;27.80;99.90;;;;;;5016623;28;20049;-76
2023/06/08 10:33:08;;;;;;;1999.90;999.90;;;27.90;99.90;;;;;;5026554;28;20080;-76
2023/06/08 10:35:35;;;;;;;1999.90;999.90;;;28.40;99.90;;;;;;4997858;28;20042;-76
2023/06/08 10:38:14;;;;;;;1999.90;999.90;;;29.10;99.90;;;;;;5016697;28;20123;-76
2023/06/08 10:40:49;;;;;;;1999.90;999.90;;;29.10;99.90;;;;;;5029128;28;20072;-76
2023/06/08 10:43:15;;;;;;;1999.90;999.90;;;29.20;99.90;;;;;;5033428;28;20049;-77
2023/06/08 10:45:44;;;;;;;1999.90;999.90;;;29.30;99.90;;;;;;5031908;28;20045;-76
2023/06/08 10:48:14;;;;;;;1999.90;999.90;;;30.00;99.90;;;;;;5034414;28;20406;-76
2023/06/08 10:50:42;;;;;;;1999.90;999.90;;;29.90;99.90;;;;;;5016199;28;20053;-77
2023/06/08 10:53:08;;;;;;;1999.90;999.90;;;30.00;99.90;;;;;;5033298;28;20045;-77
2023/06/08 10:55:34;;;;;;;1999.90;999.90;;;30.10;99.90;;;;;;5016180;28;20516;-77
2023/06/08 10:58:14;;;;;;;1999.90;999.90;;;30.50;99.90;;;;;;5033105;28;20120;-77
2023/06/08 11:00:44;;;;;;;1999.90;999.90;;;30.50;99.90;;;;;;5034444;28;20051;-76
2023/06/08 11:03:12;;;;;;;1999.90;999.90;;;30.60;99.90;;;;;;5013108;28;20133;-76
2023/06/08 11:05:41;;;;;;;1999.90;999.90;;;31.30;99.90;;;;;;5011084;28;20054;-77
2023/06/08 11:08:07;;;;;;;1999.90;999.90;;;31.50;99.90;;;;;;5014253;28;20049;-76
2023/06/08 11:10:36;;;;;;;1999.90;999.90;;;31.50;99.90;;;;;;5013860;28;20049;-77
2023/06/08 11:13:13;;;;;;;1999.90;999.90;;;31.60;99.90;;;;;;5008880;28;20079;-77
2023/06/08 11:15:41;;;;;;;1999.90;999.90;;;31.70;99.90;;;;;;5007850;28;20049;-76
2023/06/08 11:18:08;;;;;;;1999.90;999.90;;;32.10;99.90;;;;;;5013749;28;20112;-77
2023/06/08 11:20:39;;;;;;;1999.90;999.90;;;32.10;99.90;;;;;;5005100;28;20525;-77
2023/06/08 11:23:10;;;;;;;1999.90;999.90;;;32.30;99.90;;;;;;4989573;28;20054;-77
2023/06/08 11:25:37;;;;;;;1999.90;999.90;;;32.50;99.90;;;;;;5007489;28;20049;-81
2023/06/08 11:28:03;;;;;;;1999.90;999.90;;;33.10;99.90;;;;;;5008537;28;20038;-82
2023/06/08 11:30:33;;;;;;;1999.90;999.90;;;33.00;99.90;;;;;;5008949;28;20046;-76
2023/06/08 11:32:59;;;;;;;1999.90;999.90;;;32.80;99.90;;;;;;5010201;28;20049;-77
2023/06/08 11:35:26;;;;;;;1999.90;999.90;;;33.10;99.90;;;;;;5011325;28;20042;-77
2023/06/08 11:38:00;;;;;;;1999.90;999.90;;;33.70;99.90;;;;;;5013962;28;20060;-77
2023/06/08 11:40:27;;;;;;;1999.90;999.90;;;33.90;99.90;;;;;;4996231;28;20053;-76
2023/06/08 11:42:53;;;;;;;1999.90;999.90;;;34.30;99.90;;;;;;5012331;28;20088;-76
2023/06/08 11:45:19;;;;;;;1999.90;999.90;;;34.70;99.90;;;;;;5011132;28;20097;-79
2023/06/08 11:47:45;;;;;;;1999.90;999.90;;;34.90;99.90;;;;;;5012994;28;20108;-76
2023/06/08 11:50:14;;;;;;;1999.90;999.90;;;35.10;99.90;;;;;;5014405;28;20104;-77
2023/06/08 11:52:42;;;;;;;1999.90;999.90;;;35.40;99.90;;;;;;5011384;28;20390;-76
2023/06/08 11:55:15;;;;;;;1999.90;999.90;;;35.50;99.90;;;;;;4996844;28;20060;-76
2023/06/08 11:57:41;;;;;;;1999.90;999.90;;;35.30;99.90;;;;;;5012537;28;20057;-77
2023/06/08 12:00:15;;;;;;;1999.90;999.90;;;35.70;99.90;;;;;;5013268;28;20565;-76
2023/06/08 12:02:41;;;;;;;1999.90;999.90;;;35.90;99.90;;;;;;5020454;28;20061;-74